sensor_id;sensor_type;location;lat;lon;timestamp;P1;durP1;ratioP1;P2;durP2;ratioP2
83282;SDS011;73190;50.780;5.658;2023-12-07T00:01:18;31.55;;;18.98;;
83282;SDS011;73190;50.780;5.658;2023-12-07T00:03:46;42.90;;;21.60;;
83282;SDS011;73190;50.780;5.658;2023-12-07T00:06:14;47.35;;;24.75;;
83282;SDS011;73190;50.780;5.658;2023-12-07T00:08:41;51.77;;;26.40;;
83282;SDS011;73190;50.780;5.658;2023-12-07T00:11:09;50.90;;;27.62;;
83282;SDS011;73190;50.780;5.658;2023-12-07T00:13:37;48.75;;;26.57;;
83282;SDS011;73190;50.780;5.658;2023-12-07T00:16:04;49.08;;;26.60;;
83282;SDS011;73190;50.780;5.658;2023-12-07T00:18:32;53.98;;;27.73;;
83282;SDS011;73190;50.780;5.658;2023-12-07T00:20:59;55.15;;;27.87;;
83282;SDS011;73190;50.780;5.658;2023-12-07T00:23:27;52.13;;;27.93;;
83282;SDS011;73190;50.780;5.658;2023-12-07T00:25:55;51.30;;;28.77;;
83282;SDS011;73190;50.780;5.658;2023-12-07T00:28:24;51.00;;;27.65;;
83282;SDS011;73190;50.780;5.658;2023-12-07T00:30:52;47.30;;;27.90;;
83282;SDS011;73190;50.780;5.658;2023-12-07T00:33:19;49.27;;;26.70;;
83282;SDS011;73190;50.780;5.658;2023-12-07T00:35:47;47.10;;;27.00;;
83282;SDS011;73190;50.780;5.658;2023-12-07T00:38:15;48.83;;;27.48;;
83282;SDS011;73190;50.780;5.658;2023-12-07T00:40:43;51.08;;;26.48;;
83282;SDS011;73190;50.780;5.658;2023-12-07T00:43:10;44.83;;;25.55;;
83282;SDS011;73190;50.780;5.658;2023-12-07T00:45:39;42.83;;;25.50;;
83282;SDS011;73190;50.780;5.658;2023-12-07T00:48:06;44.45;;;25.40;;
83282;SDS011;73190;50.780;5.658;2023-12-07T00:50:34;38.73;;;22.52;;
83282;SDS011;73190;50.780;5.658;2023-12-07T00:53:01;37.80;;;22.37;;
83282;SDS011;73190;50.780;5.658;2023-12-07T00:55:29;35.92;;;21.75;;
83282;SDS011;73190;50.780;5.658;2023-12-07T00:57:57;40.95;;;22.98;;
83282;SDS011;73190;50.780;5.658;2023-12-07T01:00:26;37.80;;;22.30;;
83282;SDS011;73190;50.780;5.658;2023-12-07T01:02:54;40.58;;;22.55;;
83282;SDS011;73190;50.780;5.658;2023-12-07T01:05:21;37.38;;;22.77;;
83282;SDS011;73190;50.780;5.658;2023-12-07T01:07:49;35.88;;;21.37;;
83282;SDS011;73190;50.780;5.658;2023-12-07T01:10:16;37.70;;;21.00;;
83282;SDS011;73190;50.780;5.658;2023-12-07T01:12:44;34.75;;;19.80;;
83282;SDS011;73190;50.780;5.658;2023-12-07T01:15:12;33.13;;;19.05;;
83282;SDS011;73190;50.780;5.658;2023-12-07T01:17:39;31.82;;;20.25;;
83282;SDS011;73190;50.780;5.658;2023-12-07T01:20:07;32.08;;;19.00;;
83282;SDS011;73190;50.780;5.658;2023-12-07T01:22:37;32.08;;;19.77;;
83282;SDS011;73190;50.780;5.658;2023-12-07T01:25:07;34.53;;;20.48;;
83282;SDS011;73190;50.780;5.658;2023-12-07T01:27:34;32.70;;;20.00;;
83282;SDS011;73190;50.780;5.658;2023-12-07T01:30:02;32.40;;;19.75;;
83282;SDS011;73190;50.780;5.658;2023-12-07T01:32:30;31.20;;;18.95;;
83282;SDS011;73190;50.780;5.658;2023-12-07T01:34:58;31.25;;;18.62;;
83282;SDS011;73190;50.780;5.658;2023-12-07T01:37:26;32.75;;;18.90;;
83282;SDS011;73190;50.780;5.658;2023-12-07T01:39:55;34.50;;;19.27;;
83282;SDS011;73190;50.780;5.658;2023-12-07T01:42:22;34.00;;;18.87;;
83282;SDS011;73190;50.780;5.658;2023-12-07T01:44:50;31.30;;;19.32;;
83282;SDS011;73190;50.780;5.658;2023-12-07T01:47:17;30.82;;;17.65;;
83282;SDS011;73190;50.780;5.658;2023-12-07T01:49:45;29.90;;;18.87;;
83282;SDS011;73190;50.780;5.658;2023-12-07T01:52:13;31.85;;;18.90;;
83282;SDS011;73190;50.780;5.658;2023-12-07T01:54:41;29.75;;;18.77;;
83282;SDS011;73190;50.780;5.658;2023-12-07T01:57:09;32.10;;;19.48;;
83282;SDS011;73190;50.780;5.658;2023-12-07T01:59:36;32.38;;;18.95;;
83282;SDS011;73190;50.780;5.658;2023-12-07T02:02:04;30.57;;;18.15;;
83282;SDS011;73190;50.780;5.658;2023-12-07T02:04:32;32.20;;;18.15;;
83282;SDS011;73190;50.780;5.658;2023-12-07T02:07:00;30.57;;;18.98;;
83282;SDS011;73190;50.780;5.658;2023-12-07T02:09:29;28.50;;;18.00;;
83282;SDS011;73190;50.780;5.658;2023-12-07T02:11:57;29.12;;;17.17;;
83282;SDS011;73190;50.780;5.658;2023-12-07T02:14:24;27.05;;;16.35;;
83282;SDS011;73190;50.780;5.658;2023-12-07T02:16:54;27.87;;;16.80;;
83282;SDS011;73190;50.780;5.658;2023-12-07T02:19:43;24.85;;;16.00;;
83282;SDS011;73190;50.780;5.658;2023-12-07T02:22:18;28.17;;;16.45;;
83282;SDS011;73190;50.780;5.658;2023-12-07T02:25:06;24.98;;;16.05;;
83282;SDS011;73190;50.780;5.658;2023-12-07T02:27:36;25.85;;;16.25;;
83282;SDS011;73190;50.780;5.658;2023-12-07T02:30:08;25.88;;;15.28;;
83282;SDS011;73190;50.780;5.658;2023-12-07T02:32:38;24.67;;;14.80;;
83282;SDS011;73190;50.780;5.658;2023-12-07T02:35:08;26.27;;;15.40;;
83282;SDS011;73190;50.780;5.658;2023-12-07T02:37:43;25.82;;;14.50;;
83282;SDS011;73190;50.780;5.658;2023-12-07T02:40:08;26.85;;;16.15;;
83282;SDS011;73190;50.780;5.658;2023-12-07T02:42:38;26.60;;;15.53;;
83282;SDS011;73190;50.780;5.658;2023-12-07T02:45:09;27.20;;;15.95;;
83282;SDS011;73190;50.780;5.658;2023-12-07T02:47:38;30.40;;;15.95;;
83282;SDS011;73190;50.780;5.658;2023-12-07T02:50:06;32.70;;;15.38;;
83282;SDS011;73190;50.780;5.658;2023-12-07T02:52:34;25.27;;;14.95;;
83282;SDS011;73190;50.780;5.658;2023-12-07T02:55:02;31.45;;;15.85;;
83282;SDS011;73190;50.780;5.658;2023-12-07T02:57:30;23.05;;;15.28;;
83282;SDS011;73190;50.780;5.658;2023-12-07T03:00:02;25.15;;;14.55;;
83282;SDS011;73190;50.780;5.658;2023-12-07T03:02:35;25.27;;;15.23;;
83282;SDS011;73190;50.780;5.658;2023-12-07T03:05:05;25.68;;;14.95;;
83282;SDS011;73190;50.780;5.658;2023-12-07T03:07:33;25.40;;;15.08;;
83282;SDS011;73190;50.780;5.658;2023-12-07T03:10:01;24.02;;;15.25;;
83282;SDS011;73190;50.780;5.658;2023-12-07T03:12:30;25.70;;;14.28;;
83282;SDS011;73190;50.780;5.658;2023-12-07T03:14:57;24.80;;;14.43;;
83282;SDS011;73190;50.780;5.658;2023-12-07T03:17:25;21.17;;;13.35;;
83282;SDS011;73190;50.780;5.658;2023-12-07T03:19:52;25.92;;;15.10;;
83282;SDS011;73190;50.780;5.658;2023-12-07T03:22:20;24.95;;;15.28;;
83282;SDS011;73190;50.780;5.658;2023-12-07T03:24:51;23.75;;;15.30;;
83282;SDS011;73190;50.780;5.658;2023-12-07T03:27:18;24.40;;;14.85;;
83282;SDS011;73190;50.780;5.658;2023-12-07T03:29:46;24.70;;;16.02;;
83282;SDS011;73190;50.780;5.658;2023-12-07T03:32:14;25.72;;;16.15;;
83282;SDS011;73190;50.780;5.658;2023-12-07T03:34:41;23.87;;;15.20;;
83282;SDS011;73190;50.780;5.658;2023-12-07T03:37:09;28.35;;;15.38;;
83282;SDS011;73190;50.780;5.658;2023-12-07T03:39:36;24.57;;;15.70;;
83282;SDS011;73190;50.780;5.658;2023-12-07T03:42:04;28.65;;;16.32;;
83282;SDS011;73190;50.780;5.658;2023-12-07T03:44:32;27.07;;;15.58;;
83282;SDS011;73190;50.780;5.658;2023-12-07T03:47:00;27.05;;;16.60;;
83282;SDS011;73190;50.780;5.658;2023-12-07T03:49:28;26.37;;;16.05;;
83282;SDS011;73190;50.780;5.658;2023-12-07T03:51:55;27.40;;;17.37;;
83282;SDS011;73190;50.780;5.658;2023-12-07T03:54:23;26.10;;;16.57;;
83282;SDS011;73190;50.780;5.658;2023-12-07T03:56:50;29.12;;;16.52;;
83282;SDS011;73190;50.780;5.658;2023-12-07T03:59:18;30.12;;;17.45;;
83282;SDS011;73190;50.780;5.658;2023-12-07T04:01:45;28.02;;;16.77;;
83282;SDS011;73190;50.780;5.658;2023-12-07T04:04:13;25.48;;;17.05;;
83282;SDS011;73190;50.780;5.658;2023-12-07T04:06:40;27.98;;;17.07;;
83282;SDS011;73190;50.780;5.658;2023-12-07T04:09:08;29.07;;;16.85;;
83282;SDS011;73190;50.780;5.658;2023-12-07T04:11:36;28.75;;;17.07;;
83282;SDS011;73190;50.780;5.658;2023-12-07T04:14:03;26.12;;;17.05;;
83282;SDS011;73190;50.780;5.658;2023-12-07T04:16:31;29.30;;;17.15;;
83282;SDS011;73190;50.780;5.658;2023-12-07T04:18:58;24.87;;;15.75;;
83282;SDS011;73190;50.780;5.658;2023-12-07T04:21:26;28.15;;;16.42;;
83282;SDS011;73190;50.780;5.658;2023-12-07T04:23:53;22.27;;;14.65;;
83282;SDS011;73190;50.780;5.658;2023-12-07T04:26:21;25.27;;;14.95;;
83282;SDS011;73190;50.780;5.658;2023-12-07T04:28:49;23.77;;;13.35;;
83282;SDS011;73190;50.780;5.658;2023-12-07T04:31:16;21.85;;;13.03;;
83282;SDS011;73190;50.780;5.658;2023-12-07T04:33:44;21.40;;;13.22;;
83282;SDS011;73190;50.780;5.658;2023-12-07T04:36:11;23.67;;;13.95;;
83282;SDS011;73190;50.780;5.658;2023-12-07T04:38:39;20.08;;;12.90;;
83282;SDS011;73190;50.780;5.658;2023-12-07T04:41:08;20.37;;;13.15;;
83282;SDS011;73190;50.780;5.658;2023-12-07T04:43:36;19.37;;;12.30;;
83282;SDS011;73190;50.780;5.658;2023-12-07T04:46:03;18.80;;;11.83;;
83282;SDS011;73190;50.780;5.658;2023-12-07T04:48:31;18.27;;;12.07;;
83282;SDS011;73190;50.780;5.658;2023-12-07T04:50:59;17.23;;;10.93;;
83282;SDS011;73190;50.780;5.658;2023-12-07T04:53:26;19.27;;;12.20;;
83282;SDS011;73190;50.780;5.658;2023-12-07T04:55:54;18.40;;;11.43;;
83282;SDS011;73190;50.780;5.658;2023-12-07T04:58:22;18.92;;;12.05;;
83282;SDS011;73190;50.780;5.658;2023-12-07T05:00:49;18.40;;;11.70;;
83282;SDS011;73190;50.780;5.658;2023-12-07T05:03:17;16.25;;;11.10;;
83282;SDS011;73190;50.780;5.658;2023-12-07T05:05:44;18.00;;;11.28;;
83282;SDS011;73190;50.780;5.658;2023-12-07T05:08:12;16.82;;;11.22;;
83282;SDS011;73190;50.780;5.658;2023-12-07T05:10:39;14.83;;;10.93;;
83282;SDS011;73190;50.780;5.658;2023-12-07T05:13:07;18.02;;;11.33;;
83282;SDS011;73190;50.780;5.658;2023-12-07T05:15:34;17.57;;;11.55;;
83282;SDS011;73190;50.780;5.658;2023-12-07T05:18:02;16.32;;;11.28;;
83282;SDS011;73190;50.780;5.658;2023-12-07T05:20:30;15.95;;;11.08;;
83282;SDS011;73190;50.780;5.658;2023-12-07T05:22:57;17.05;;;10.78;;
83282;SDS011;73190;50.780;5.658;2023-12-07T05:25:25;15.68;;;10.78;;
83282;SDS011;73190;50.780;5.658;2023-12-07T05:27:52;14.93;;;10.82;;
83282;SDS011;73190;50.780;5.658;2023-12-07T05:30:20;14.78;;;10.40;;
83282;SDS011;73190;50.780;5.658;2023-12-07T05:32:48;17.70;;;10.75;;
83282;SDS011;73190;50.780;5.658;2023-12-07T05:35:16;16.57;;;10.90;;
83282;SDS011;73190;50.780;5.658;2023-12-07T05:37:43;16.05;;;11.00;;
83282;SDS011;73190;50.780;5.658;2023-12-07T05:40:11;20.48;;;10.60;;
83282;SDS011;73190;50.780;5.658;2023-12-07T05:42:39;16.80;;;11.00;;
83282;SDS011;73190;50.780;5.658;2023-12-07T05:45:07;14.70;;;10.88;;
83282;SDS011;73190;50.780;5.658;2023-12-07T05:47:35;16.93;;;11.47;;
83282;SDS011;73190;50.780;5.658;2023-12-07T05:50:03;16.97;;;10.88;;
83282;SDS011;73190;50.780;5.658;2023-12-07T05:52:32;15.35;;;10.60;;
83282;SDS011;73190;50.780;5.658;2023-12-07T05:55:01;18.62;;;11.00;;
83282;SDS011;73190;50.780;5.658;2023-12-07T05:59:57;12.15;;;9.48;;
83282;SDS011;73190;50.780;5.658;2023-12-07T06:02:24;13.85;;;10.03;;
83282;SDS011;73190;50.780;5.658;2023-12-07T06:04:53;16.48;;;10.63;;
83282;SDS011;73190;50.780;5.658;2023-12-07T06:07:20;14.80;;;9.90;;
83282;SDS011;73190;50.780;5.658;2023-12-07T06:09:48;15.18;;;9.73;;
83282;SDS011;73190;50.780;5.658;2023-12-07T06:12:15;14.13;;;9.95;;
83282;SDS011;73190;50.780;5.658;2023-12-07T06:14:43;14.40;;;10.05;;
83282;SDS011;73190;50.780;5.658;2023-12-07T06:17:10;14.30;;;10.00;;
83282;SDS011;73190;50.780;5.658;2023-12-07T06:19:38;14.28;;;9.38;;
83282;SDS011;73190;50.780;5.658;2023-12-07T06:22:05;14.38;;;8.95;;
83282;SDS011;73190;50.780;5.658;2023-12-07T06:24:33;11.55;;;8.13;;
83282;SDS011;73190;50.780;5.658;2023-12-07T06:27:01;11.03;;;8.05;;
83282;SDS011;73190;50.780;5.658;2023-12-07T06:29:29;13.22;;;8.48;;
83282;SDS011;73190;50.780;5.658;2023-12-07T06:31:57;12.28;;;8.55;;
83282;SDS011;73190;50.780;5.658;2023-12-07T06:34:25;12.23;;;8.20;;
83282;SDS011;73190;50.780;5.658;2023-12-07T06:36:54;12.47;;;8.58;;
83282;SDS011;73190;50.780;5.658;2023-12-07T06:39:21;12.93;;;8.00;;
83282;SDS011;73190;50.780;5.658;2023-12-07T06:41:49;13.75;;;7.95;;
83282;SDS011;73190;50.780;5.658;2023-12-07T06:44:16;12.03;;;8.20;;
83282;SDS011;73190;50.780;5.658;2023-12-07T06:46:44;12.30;;;8.60;;
83282;SDS011;73190;50.780;5.658;2023-12-07T06:49:11;14.18;;;7.75;;
83282;SDS011;73190;50.780;5.658;2023-12-07T06:51:39;14.30;;;7.83;;
83282;SDS011;73190;50.780;5.658;2023-12-07T06:54:07;13.75;;;8.88;;
83282;SDS011;73190;50.780;5.658;2023-12-07T06:56:34;13.00;;;9.10;;
83282;SDS011;73190;50.780;5.658;2023-12-07T06:59:02;15.13;;;7.90;;
83282;SDS011;73190;50.780;5.658;2023-12-07T07:01:29;13.53;;;8.03;;
83282;SDS011;73190;50.780;5.658;2023-12-07T07:03:57;11.60;;;7.35;;
83282;SDS011;73190;50.780;5.658;2023-12-07T07:06:25;12.00;;;8.05;;
83282;SDS011;73190;50.780;5.658;2023-12-07T07:08:53;15.15;;;7.70;;
83282;SDS011;73190;50.780;5.658;2023-12-07T07:11:20;13.28;;;8.03;;
83282;SDS011;73190;50.780;5.658;2023-12-07T07:13:49;11.22;;;7.58;;
83282;SDS011;73190;50.780;5.658;2023-12-07T07:16:16;15.03;;;8.48;;
83282;SDS011;73190;50.780;5.658;2023-12-07T07:18:44;11.65;;;7.65;;
83282;SDS011;73190;50.780;5.658;2023-12-07T07:21:12;9.80;;;7.15;;
83282;SDS011;73190;50.780;5.658;2023-12-07T07:23:40;11.10;;;7.53;;
83282;SDS011;73190;50.780;5.658;2023-12-07T07:26:07;11.30;;;7.30;;
83282;SDS011;73190;50.780;5.658;2023-12-07T07:28:35;13.30;;;7.42;;
83282;SDS011;73190;50.780;5.658;2023-12-07T07:31:02;15.00;;;8.10;;
83282;SDS011;73190;50.780;5.658;2023-12-07T07:33:30;15.80;;;7.92;;
83282;SDS011;73190;50.780;5.658;2023-12-07T07:35:57;11.15;;;7.62;;
83282;SDS011;73190;50.780;5.658;2023-12-07T07:38:25;12.15;;;7.67;;
83282;SDS011;73190;50.780;5.658;2023-12-07T07:40:53;13.65;;;6.80;;
83282;SDS011;73190;50.780;5.658;2023-12-07T07:43:20;11.22;;;6.92;;
83282;SDS011;73190;50.780;5.658;2023-12-07T07:45:48;9.95;;;6.92;;
83282;SDS011;73190;50.780;5.658;2023-12-07T07:48:15;11.05;;;6.35;;
83282;SDS011;73190;50.780;5.658;2023-12-07T07:50:43;8.60;;;5.95;;
83282;SDS011;73190;50.780;5.658;2023-12-07T07:53:10;10.00;;;6.70;;
83282;SDS011;73190;50.780;5.658;2023-12-07T07:55:38;9.73;;;6.17;;
83282;SDS011;73190;50.780;5.658;2023-12-07T07:58:06;9.98;;;6.40;;
83282;SDS011;73190;50.780;5.658;2023-12-07T08:00:33;11.18;;;6.50;;
83282;SDS011;73190;50.780;5.658;2023-12-07T08:03:01;11.50;;;6.70;;
83282;SDS011;73190;50.780;5.658;2023-12-07T08:05:29;9.50;;;6.83;;
83282;SDS011;73190;50.780;5.658;2023-12-07T08:07:56;12.82;;;6.85;;
83282;SDS011;73190;50.780;5.658;2023-12-07T08:10:24;12.68;;;6.65;;
83282;SDS011;73190;50.780;5.658;2023-12-07T08:12:51;12.37;;;6.62;;
83282;SDS011;73190;50.780;5.658;2023-12-07T08:15:19;12.37;;;7.35;;
83282;SDS011;73190;50.780;5.658;2023-12-07T08:17:47;13.83;;;7.22;;
83282;SDS011;73190;50.780;5.658;2023-12-07T08:20:16;12.20;;;7.60;;
83282;SDS011;73190;50.780;5.658;2023-12-07T08:22:44;13.60;;;6.72;;
83282;SDS011;73190;50.780;5.658;2023-12-07T08:25:11;13.53;;;7.40;;
83282;SDS011;73190;50.780;5.658;2023-12-07T08:27:39;13.05;;;7.20;;
83282;SDS011;73190;50.780;5.658;2023-12-07T08:30:07;13.22;;;7.70;;
83282;SDS011;73190;50.780;5.658;2023-12-07T08:32:35;12.85;;;7.83;;
83282;SDS011;73190;50.780;5.658;2023-12-07T08:35:02;12.55;;;7.42;;
83282;SDS011;73190;50.780;5.658;2023-12-07T08:37:32;15.48;;;8.28;;
83282;SDS011;73190;50.780;5.658;2023-12-07T08:40:00;18.37;;;7.75;;
83282;SDS011;73190;50.780;5.658;2023-12-07T08:42:28;13.70;;;7.08;;
83282;SDS011;73190;50.780;5.658;2023-12-07T08:44:57;11.38;;;7.40;;
83282;SDS011;73190;50.780;5.658;2023-12-07T08:47:25;13.20;;;7.75;;
83282;SDS011;73190;50.780;5.658;2023-12-07T08:49:54;15.53;;;7.47;;
83282;SDS011;73190;50.780;5.658;2023-12-07T08:52:22;10.93;;;7.40;;
83282;SDS011;73190;50.780;5.658;2023-12-07T08:54:51;13.40;;;7.15;;
83282;SDS011;73190;50.780;5.658;2023-12-07T08:57:18;13.32;;;6.75;;
83282;SDS011;73190;50.780;5.658;2023-12-07T08:59:46;13.28;;;7.55;;
83282;SDS011;73190;50.780;5.658;2023-12-07T09:02:13;13.40;;;7.50;;
83282;SDS011;73190;50.780;5.658;2023-12-07T09:04:41;9.83;;;6.10;;
83282;SDS011;73190;50.780;5.658;2023-12-07T09:07:08;11.35;;;7.10;;
83282;SDS011;73190;50.780;5.658;2023-12-07T09:09:38;10.95;;;6.78;;
83282;SDS011;73190;50.780;5.658;2023-12-07T09:12:05;10.48;;;6.35;;
83282;SDS011;73190;50.780;5.658;2023-12-07T09:14:33;11.10;;;7.33;;
83282;SDS011;73190;50.780;5.658;2023-12-07T09:17:00;10.23;;;6.67;;
83282;SDS011;73190;50.780;5.658;2023-12-07T09:19:28;11.12;;;7.15;;
83282;SDS011;73190;50.780;5.658;2023-12-07T09:21:55;10.45;;;6.35;;
83282;SDS011;73190;50.780;5.658;2023-12-07T09:24:24;11.35;;;7.03;;
83282;SDS011;73190;50.780;5.658;2023-12-07T09:26:52;10.58;;;6.33;;
83282;SDS011;73190;50.780;5.658;2023-12-07T09:29:20;12.60;;;7.67;;
83282;SDS011;73190;50.780;5.658;2023-12-07T09:31:47;11.25;;;7.17;;
83282;SDS011;73190;50.780;5.658;2023-12-07T09:34:15;13.15;;;6.83;;
83282;SDS011;73190;50.780;5.658;2023-12-07T09:36:44;11.48;;;6.78;;
83282;SDS011;73190;50.780;5.658;2023-12-07T09:39:12;14.98;;;7.33;;
83282;SDS011;73190;50.780;5.658;2023-12-07T09:41:40;13.13;;;7.08;;
83282;SDS011;73190;50.780;5.658;2023-12-07T09:44:12;9.60;;;6.65;;
83282;SDS011;73190;50.780;5.658;2023-12-07T09:46:39;9.63;;;6.65;;
83282;SDS011;73190;50.780;5.658;2023-12-07T09:49:07;10.30;;;6.62;;
83282;SDS011;73190;50.780;5.658;2023-12-07T09:51:36;10.28;;;7.05;;
83282;SDS011;73190;50.780;5.658;2023-12-07T09:54:05;9.43;;;6.17;;
83282;SDS011;73190;50.780;5.658;2023-12-07T09:56:33;7.22;;;5.50;;
83282;SDS011;73190;50.780;5.658;2023-12-07T09:59:01;11.33;;;7.22;;
83282;SDS011;73190;50.780;5.658;2023-12-07T10:01:29;12.58;;;6.80;;
83282;SDS011;73190;50.780;5.658;2023-12-07T10:06:45;8.73;;;5.90;;
83282;SDS011;73190;50.780;5.658;2023-12-07T10:09:14;9.23;;;6.25;;
83282;SDS011;73190;50.780;5.658;2023-12-07T10:11:44;10.28;;;5.78;;
83282;SDS011;73190;50.780;5.658;2023-12-07T10:14:12;9.53;;;6.17;;
83282;SDS011;73190;50.780;5.658;2023-12-07T10:16:53;10.40;;;6.28;;
83282;SDS011;73190;50.780;5.658;2023-12-07T10:19:24;10.13;;;5.97;;
83282;SDS011;73190;50.780;5.658;2023-12-07T10:21:53;8.38;;;6.20;;
83282;SDS011;73190;50.780;5.658;2023-12-07T10:24:22;10.40;;;6.65;;
83282;SDS011;73190;50.780;5.658;2023-12-07T10:26:52;10.23;;;5.97;;
83282;SDS011;73190;50.780;5.658;2023-12-07T10:29:22;9.78;;;6.70;;
83282;SDS011;73190;50.780;5.658;2023-12-07T10:31:49;9.90;;;6.28;;
83282;SDS011;73190;50.780;5.658;2023-12-07T10:34:18;10.75;;;6.92;;
83282;SDS011;73190;50.780;5.658;2023-12-07T10:36:46;9.20;;;6.80;;
83282;SDS011;73190;50.780;5.658;2023-12-07T10:39:15;9.15;;;6.08;;
83282;SDS011;73190;50.780;5.658;2023-12-07T10:41:43;10.15;;;6.45;;
83282;SDS011;73190;50.780;5.658;2023-12-07T10:44:14;10.00;;;6.35;;
83282;SDS011;73190;50.780;5.658;2023-12-07T10:46:44;9.70;;;6.12;;
83282;SDS011;73190;50.780;5.658;2023-12-07T10:49:14;10.38;;;6.20;;
83282;SDS011;73190;50.780;5.658;2023-12-07T10:54:20;9.38;;;6.08;;
83282;SDS011;73190;50.780;5.658;2023-12-07T10:59:16;10.28;;;6.10;;
83282;SDS011;73190;50.780;5.658;2023-12-07T11:01:44;10.72;;;6.37;;
83282;SDS011;73190;50.780;5.658;2023-12-07T11:04:13;10.78;;;6.05;;
83282;SDS011;73190;50.780;5.658;2023-12-07T11:06:41;9.78;;;6.20;;
83282;SDS011;73190;50.780;5.658;2023-12-07T11:09:16;9.55;;;5.97;;
83282;SDS011;73190;50.780;5.658;2023-12-07T11:11:43;10.90;;;6.30;;
83282;SDS011;73190;50.780;5.658;2023-12-07T11:14:12;9.45;;;6.20;;
83282;SDS011;73190;50.780;5.658;2023-12-07T11:16:42;11.20;;;5.83;;
83282;SDS011;73190;50.780;5.658;2023-12-07T11:22:11;9.03;;;5.60;;
83282;SDS011;73190;50.780;5.658;2023-12-07T11:27:31;7.37;;;4.60;;
83282;SDS011;73190;50.780;5.658;2023-12-07T11:29:59;8.48;;;4.60;;
83282;SDS011;73190;50.780;5.658;2023-12-07T11:32:28;9.60;;;4.90;;
83282;SDS011;73190;50.780;5.658;2023-12-07T11:35:01;8.15;;;5.20;;
83282;SDS011;73190;50.780;5.658;2023-12-07T11:40:30;8.35;;;4.65;;
83282;SDS011;73190;50.780;5.658;2023-12-07T11:43:01;6.60;;;4.53;;
83282;SDS011;73190;50.780;5.658;2023-12-07T11:45:37;6.55;;;4.58;;
83282;SDS011;73190;50.780;5.658;2023-12-07T11:48:09;12.13;;;4.60;;
83282;SDS011;73190;50.780;5.658;2023-12-07T11:50:54;9.43;;;4.57;;
83282;SDS011;73190;50.780;5.658;2023-12-07T11:53:33;11.43;;;4.60;;
83282;SDS011;73190;50.780;5.658;2023-12-07T11:56:03;8.55;;;5.50;;
83282;SDS011;73190;50.780;5.658;2023-12-07T11:58:33;10.13;;;5.05;;
83282;SDS011;73190;50.780;5.658;2023-12-07T12:01:02;21.17;;;11.55;;
83282;SDS011;73190;50.780;5.658;2023-12-07T12:03:37;15.83;;;9.48;;
83282;SDS011;73190;50.780;5.658;2023-12-07T12:06:03;13.22;;;6.20;;
83282;SDS011;73190;50.780;5.658;2023-12-07T12:08:33;19.00;;;8.28;;
83282;SDS011;73190;50.780;5.658;2023-12-07T12:11:01;14.33;;;8.20;;
83282;SDS011;73190;50.780;5.658;2023-12-07T12:13:29;9.00;;;5.28;;
83282;SDS011;73190;50.780;5.658;2023-12-07T12:15:59;13.78;;;5.55;;
83282;SDS011;73190;50.780;5.658;2023-12-07T12:18:27;11.78;;;6.00;;
83282;SDS011;73190;50.780;5.658;2023-12-07T12:20:55;13.10;;;6.72;;
83282;SDS011;73190;50.780;5.658;2023-12-07T12:23:24;11.33;;;5.50;;
83282;SDS011;73190;50.780;5.658;2023-12-07T12:25:52;11.70;;;5.03;;
83282;SDS011;73190;50.780;5.658;2023-12-07T12:28:20;9.20;;;4.95;;
83282;SDS011;73190;50.780;5.658;2023-12-07T12:30:49;13.88;;;5.42;;
83282;SDS011;73190;50.780;5.658;2023-12-07T12:33:18;13.20;;;5.10;;
83282;SDS011;73190;50.780;5.658;2023-12-07T12:35:46;12.13;;;5.15;;
83282;SDS011;73190;50.780;5.658;2023-12-07T12:38:15;10.23;;;4.37;;
83282;SDS011;73190;50.780;5.658;2023-12-07T12:40:44;9.53;;;4.37;;
83282;SDS011;73190;50.780;5.658;2023-12-07T12:43:12;6.50;;;3.58;;
83282;SDS011;73190;50.780;5.658;2023-12-07T12:45:40;8.13;;;3.72;;
83282;SDS011;73190;50.780;5.658;2023-12-07T12:48:08;6.65;;;3.92;;
83282;SDS011;73190;50.780;5.658;2023-12-07T12:50:41;9.50;;;4.40;;
83282;SDS011;73190;50.780;5.658;2023-12-07T12:53:06;11.20;;;3.90;;
83282;SDS011;73190;50.780;5.658;2023-12-07T12:55:36;11.53;;;4.47;;
83282;SDS011;73190;50.780;5.658;2023-12-07T12:58:07;8.40;;;4.25;;
83282;SDS011;73190;50.780;5.658;2023-12-07T13:00:39;6.00;;;3.42;;
83282;SDS011;73190;50.780;5.658;2023-12-07T13:03:09;9.15;;;3.47;;
83282;SDS011;73190;50.780;5.658;2023-12-07T13:05:38;11.30;;;3.93;;
83282;SDS011;73190;50.780;5.658;2023-12-07T13:08:06;13.43;;;3.92;;
83282;SDS011;73190;50.780;5.658;2023-12-07T13:10:35;13.87;;;4.60;;
83282;SDS011;73190;50.780;5.658;2023-12-07T13:13:03;9.88;;;4.25;;
83282;SDS011;73190;50.780;5.658;2023-12-07T13:15:32;10.40;;;4.03;;
83282;SDS011;73190;50.780;5.658;2023-12-07T13:18:00;14.90;;;4.30;;
83282;SDS011;73190;50.780;5.658;2023-12-07T13:20:27;11.08;;;4.00;;
83282;SDS011;73190;50.780;5.658;2023-12-07T13:22:54;10.95;;;3.75;;
83282;SDS011;73190;50.780;5.658;2023-12-07T13:25:22;7.22;;;4.08;;
83282;SDS011;73190;50.780;5.658;2023-12-07T13:27:50;12.58;;;3.95;;
83282;SDS011;73190;50.780;5.658;2023-12-07T13:30:18;7.37;;;4.78;;
83282;SDS011;73190;50.780;5.658;2023-12-07T13:32:45;17.77;;;8.35;;
83282;SDS011;73190;50.780;5.658;2023-12-07T13:35:13;13.30;;;5.67;;
83282;SDS011;73190;50.780;5.658;2023-12-07T13:37:41;7.55;;;4.87;;
83282;SDS011;73190;50.780;5.658;2023-12-07T13:40:09;16.90;;;5.62;;
83282;SDS011;73190;50.780;5.658;2023-12-07T13:42:37;12.25;;;5.62;;
83282;SDS011;73190;50.780;5.658;2023-12-07T13:45:05;6.92;;;4.37;;
83282;SDS011;73190;50.780;5.658;2023-12-07T13:47:34;9.20;;;4.67;;
83282;SDS011;73190;50.780;5.658;2023-12-07T13:50:03;8.63;;;4.37;;
83282;SDS011;73190;50.780;5.658;2023-12-07T13:52:32;9.30;;;5.12;;
83282;SDS011;73190;50.780;5.658;2023-12-07T13:54:59;9.13;;;4.58;;
83282;SDS011;73190;50.780;5.658;2023-12-07T13:57:28;7.47;;;4.20;;
83282;SDS011;73190;50.780;5.658;2023-12-07T13:59:55;10.08;;;5.40;;
83282;SDS011;73190;50.780;5.658;2023-12-07T14:02:23;7.75;;;5.00;;
83282;SDS011;73190;50.780;5.658;2023-12-07T14:04:51;7.00;;;4.47;;
83282;SDS011;73190;50.780;5.658;2023-12-07T14:07:20;7.33;;;4.28;;
83282;SDS011;73190;50.780;5.658;2023-12-07T14:09:51;9.25;;;4.65;;
83282;SDS011;73190;50.780;5.658;2023-12-07T14:12:19;8.33;;;4.50;;
83282;SDS011;73190;50.780;5.658;2023-12-07T14:14:47;6.22;;;4.40;;
83282;SDS011;73190;50.780;5.658;2023-12-07T14:17:15;7.78;;;4.65;;
83282;SDS011;73190;50.780;5.658;2023-12-07T14:19:44;6.92;;;4.67;;
83282;SDS011;73190;50.780;5.658;2023-12-07T14:22:13;9.07;;;4.53;;
83282;SDS011;73190;50.780;5.658;2023-12-07T14:24:43;6.60;;;4.30;;
83282;SDS011;73190;50.780;5.658;2023-12-07T14:27:13;8.23;;;4.60;;
83282;SDS011;73190;50.780;5.658;2023-12-07T14:29:42;7.05;;;4.42;;
83282;SDS011;73190;50.780;5.658;2023-12-07T14:32:10;9.13;;;4.75;;
83282;SDS011;73190;50.780;5.658;2023-12-07T14:34:37;11.30;;;4.62;;
83282;SDS011;73190;50.780;5.658;2023-12-07T14:37:05;10.10;;;4.65;;
83282;SDS011;73190;50.780;5.658;2023-12-07T14:39:34;7.15;;;4.60;;
83282;SDS011;73190;50.780;5.658;2023-12-07T14:42:02;9.53;;;5.75;;
83282;SDS011;73190;50.780;5.658;2023-12-07T14:44:33;9.03;;;4.47;;
83282;SDS011;73190;50.780;5.658;2023-12-07T14:47:01;15.98;;;8.83;;
83282;SDS011;73190;50.780;5.658;2023-12-07T14:49:29;16.95;;;7.65;;
83282;SDS011;73190;50.780;5.658;2023-12-07T14:51:56;9.50;;;5.15;;
83282;SDS011;73190;50.780;5.658;2023-12-07T14:54:26;15.90;;;8.68;;
83282;SDS011;73190;50.780;5.658;2023-12-07T14:56:56;8.63;;;6.10;;